Time;durP1;ratioP1;P1;durP2;ratioP2;P2;SDS_P1;SDS_P2;PMS_P1;PMS_P2;Temp;Humidity;BMP_temperature;BMP_pressure;BME280_temperature;BME280_humidity;BME280_pressure;Samples;Min_cycle;Max_cycle;Signal;HPM_P1;HPM_P2
2021/01/24 00:02:14;;;;;;;3.30;2.10;;;6.20;99.90;;;;;;5050771;28;20209;-60
2021/01/24 00:04:40;;;;;;;2.23;2.00;;;6.20;99.90;;;;;;5050813;28;20601;-60
2021/01/24 00:07:06;;;;;;;2.30;2.10;;;6.20;99.90;;;;;;5050601;28;20654;-60
2021/01/24 00:09:32;;;;;;;2.23;1.97;;;6.20;99.90;;;;;;5050808;28;20217;-60
2021/01/24 00:11:59;;;;;;;3.10;2.00;;;6.30;99.90;;;;;;5052451;28;20209;-60
2021/01/24 00:14:26;;;;;;;4.70;1.97;;;6.30;99.90;;;;;;5050452;28;20579;-59
2021/01/24 00:16:52;;;;;;;2.87;2.10;;;6.20;99.90;;;;;;5052467;28;20236;-58
2021/01/24 00:19:18;;;;;;;2.57;1.90;;;6.20;99.90;;;;;;5050897;28;20239;-59
2021/01/24 00:21:45;;;;;;;3.17;1.90;;;6.20;99.90;;;;;;5050858;28;20205;-59
2021/01/24 00:24:11;;;;;;;3.83;2.03;;;6.20;99.90;;;;;;5050467;28;20609;-59
2021/01/24 00:26:37;;;;;;;2.30;1.80;;;6.20;99.90;;;;;;5050810;28;20205;-60
2021/01/24 00:29:03;;;;;;;3.03;2.00;;;6.10;99.90;;;;;;5050708;28;20629;-60
2021/01/24 00:31:30;;;;;;;3.53;1.83;;;6.00;99.90;;;;;;5050942;28;20205;-59
2021/01/24 00:33:57;;;;;;;3.07;1.67;;;6.00;99.90;;;;;;5053873;28;20685;-58
2021/01/24 00:36:23;;;;;;;3.07;1.80;;;6.00;99.90;;;;;;5054677;28;20201;-58
2021/01/24 00:38:49;;;;;;;2.00;1.80;;;5.90;99.90;;;;;;5054393;28;20209;-58
2021/01/24 00:41:15;;;;;;;2.10;1.70;;;5.90;99.90;;;;;;5054355;28;20293;-58
2021/01/24 00:43:41;;;;;;;1.80;1.70;;;5.90;99.90;;;;;;5054134;28;20278;-58
2021/01/24 00:46:08;;;;;;;2.00;1.80;;;5.90;99.90;;;;;;5054322;28;20213;-58
2021/01/24 00:48:37;;;;;;;2.20;2.00;;;5.90;99.90;;;;;;5054064;28;20717;-58
2021/01/24 00:51:04;;;;;;;2.70;2.10;;;5.90;99.90;;;;;;5054635;28;20267;-58
2021/01/24 00:53:30;;;;;;;2.13;1.90;;;5.80;99.90;;;;;;5054056;28;20205;-59
2021/01/24 00:55:56;;;;;;;2.90;2.00;;;5.70;99.90;;;;;;5054149;28;20295;-59
2021/01/24 00:58:22;;;;;;;2.87;2.30;;;5.60;99.90;;;;;;5053873;28;20718;-60
2021/01/24 01:00:48;;;;;;;2.73;2.40;;;5.50;99.90;;;;;;5054503;28;20212;-60
2021/01/24 01:03:15;;;;;;;4.60;2.43;;;5.40;99.90;;;;;;5054094;28;20221;-60
2021/01/24 01:05:42;;;;;;;3.43;2.60;;;5.20;99.90;;;;;;5054116;28;20574;-59
2021/01/24 01:08:08;;;;;;;3.90;3.50;;;5.20;99.90;;;;;;5053801;28;20229;-60
2021/01/24 01:10:35;;;;;;;4.80;4.10;;;5.10;99.90;;;;;;5053762;28;20670;-60
2021/01/24 01:13:01;;;;;;;4.57;4.17;;;5.00;99.90;;;;;;5053794;28;20198;-59
2021/01/24 01:15:27;;;;;;;4.90;3.90;;;5.00;99.90;;;;;;5053874;28;20212;-59
2021/01/24 01:17:53;;;;;;;3.83;3.40;;;4.90;99.90;;;;;;5053709;28;20238;-59
2021/01/24 01:20:19;;;;;;;5.00;3.23;;;4.90;99.90;;;;;;5053842;28;20221;-60
2021/01/24 01:22:47;;;;;;;3.57;2.80;;;4.90;99.90;;;;;;5053579;28;20210;-59
2021/01/24 01:25:13;;;;;;;4.40;3.07;;;4.90;99.90;;;;;;5053485;28;20210;-59
2021/01/24 01:27:39;;;;;;;3.70;3.30;;;4.90;99.90;;;;;;5053284;28;20237;-60
2021/01/24 01:30:07;;;;;;;2.40;2.20;;;4.90;99.90;;;;;;5053737;28;20205;-59
2021/01/24 01:32:33;;;;;;;3.37;2.63;;;5.00;99.90;;;;;;5053646;28;20209;-59
2021/01/24 01:35:00;;;;;;;2.37;1.87;;;5.10;99.90;;;;;;5053449;28;20252;-59
2021/01/24 01:37:26;;;;;;;2.57;2.20;;;5.10;99.90;;;;;;5053503;28;20582;-59
2021/01/24 01:39:53;;;;;;;2.10;1.77;;;5.10;99.90;;;;;;5053281;28;20255;-60
2021/01/24 01:42:19;;;;;;;2.57;1.60;;;5.30;99.90;;;;;;5053692;28;20216;-60
2021/01/24 01:44:46;;;;;;;2.60;1.90;;;5.40;99.90;;;;;;5052629;28;20228;-59
2021/01/24 01:47:20;;;;;;;2.30;2.07;;;5.40;99.90;;;;;;5053653;28;20225;-60
2021/01/24 01:49:47;;;;;;;3.03;2.40;;;5.40;99.90;;;;;;5053546;28;20266;-60
2021/01/24 01:52:13;;;;;;;2.40;2.20;;;5.30;99.90;;;;;;5053862;28;20228;-59
2021/01/24 01:54:43;;;;;;;2.70;2.30;;;5.40;99.90;;;;;;5053723;28;20201;-59
2021/01/24 01:57:10;;;;;;;2.20;2.00;;;5.60;99.90;;;;;;5053432;28;20222;-59
2021/01/24 01:59:36;;;;;;;2.27;2.00;;;5.60;99.90;;;;;;5053495;28;20209;-59
2021/01/24 02:02:10;;;;;;;2.63;2.10;;;5.60;99.90;;;;;;5053323;28;20205;-59
2021/01/24 02:04:41;;;;;;;2.30;2.10;;;5.60;99.90;;;;;;5053074;28;20221;-59
2021/01/24 02:07:14;;;;;;;2.23;2.03;;;5.40;99.90;;;;;;5052958;28;20230;-59
2021/01/24 02:09:45;;;;;;;3.40;2.10;;;5.40;99.90;;;;;;5053106;28;20220;-59
2021/01/24 02:12:18;;;;;;;1.83;1.70;;;5.60;99.90;;;;;;5053053;28;20213;-59
2021/01/24 02:14:51;;;;;;;2.43;2.23;;;5.50;99.90;;;;;;5052909;28;20709;-59
2021/01/24 02:17:18;;;;;;;3.70;2.50;;;5.50;99.90;;;;;;5052787;28;20249;-59
2021/01/24 02:19:55;;;;;;;2.70;1.90;;;5.60;99.90;;;;;;5052636;28;20206;-59
2021/01/24 02:22:24;;;;;;;2.80;2.30;;;5.60;99.90;;;;;;5052922;28;20205;-59
2021/01/24 02:24:56;;;;;;;3.63;1.90;;;5.60;99.90;;;;;;5052652;28;20228;-59
2021/01/24 02:27:36;;;;;;;2.57;1.90;;;5.80;99.90;;;;;;5052572;28;20248;-59
2021/01/24 02:30:15;;;;;;;2.30;1.90;;;6.00;99.90;;;;;;5052456;28;20259;-59
2021/01/24 02:32:42;;;;;;;1.90;1.70;;;5.90;99.90;;;;;;5052752;28;20201;-59
2021/01/24 02:35:09;;;;;;;1.60;1.30;;;5.90;99.90;;;;;;5052345;28;20197;-59
2021/01/24 02:37:36;;;;;;;1.00;0.90;;;5.80;99.90;;;;;;5052145;28;20234;-59
2021/01/24 02:40:03;;;;;;;0.63;0.63;;;5.80;99.90;;;;;;5052360;28;20206;-59
2021/01/24 02:42:31;;;;;;;0.63;0.60;;;5.80;99.90;;;;;;5052918;28;20212;-59
2021/01/24 02:44:58;;;;;;;0.50;0.50;;;5.60;99.90;;;;;;5052239;28;20255;-59
2021/01/24 02:47:26;;;;;;;0.50;0.50;;;5.60;99.90;;;;;;5052333;28;20232;-59
2021/01/24 02:49:53;;;;;;;0.80;0.53;;;5.50;99.90;;;;;;5052460;28;20665;-59
2021/01/24 02:52:19;;;;;;;0.90;0.60;;;5.40;99.90;;;;;;5052237;28;20206;-59
2021/01/24 02:54:47;;;;;;;0.40;0.40;;;5.40;99.90;;;;;;5052124;28;20206;-59
2021/01/24 02:57:13;;;;;;;0.57;0.57;;;5.30;99.90;;;;;;5051005;28;20225;-59
2021/01/24 02:59:40;;;;;;;0.47;0.47;;;5.20;99.90;;;;;;5052204;28;20304;-59
2021/01/24 03:02:06;;;;;;;0.60;0.60;;;5.30;99.90;;;;;;5052292;28;20256;-59
2021/01/24 03:04:33;;;;;;;0.43;0.40;;;5.10;99.90;;;;;;5052118;28;20229;-59
2021/01/24 03:06:59;;;;;;;0.37;0.37;;;4.90;99.90;;;;;;5052333;28;20225;-59
2021/01/24 03:09:25;;;;;;;0.87;0.50;;;5.00;99.90;;;;;;5052163;28;20291;-59
2021/01/24 03:11:55;;;;;;;0.27;0.27;;;5.10;99.90;;;;;;5052347;28;20213;-59
2021/01/24 03:14:24;;;;;;;0.70;0.70;;;5.20;99.90;;;;;;5052021;28;20209;-59
2021/01/24 03:16:54;;;;;;;0.70;0.70;;;5.30;99.90;;;;;;5051902;28;20643;-59
2021/01/24 03:19:24;;;;;;;1.07;0.40;;;5.30;99.90;;;;;;5051816;28;20209;-59
2021/01/24 03:21:52;;;;;;;0.60;0.60;;;5.40;99.90;;;;;;5051832;28;20201;-59
2021/01/24 03:24:21;;;;;;;0.87;0.60;;;5.40;99.90;;;;;;5051459;28;20218;-59
2021/01/24 03:26:47;;;;;;;0.50;0.50;;;5.30;99.90;;;;;;5052236;28;20256;-59
2021/01/24 03:29:14;;;;;;;0.50;0.50;;;5.30;99.90;;;;;;5051596;28;20212;-59
2021/01/24 03:31:41;;;;;;;0.80;0.53;;;5.30;99.90;;;;;;5051396;28;20666;-59
2021/01/24 03:34:19;;;;;;;1.43;0.87;;;5.20;99.90;;;;;;5051297;28;20201;-59
2021/01/24 03:36:47;;;;;;;1.00;0.90;;;5.10;99.90;;;;;;5050956;28;20736;-59
2021/01/24 03:39:15;;;;;;;1.33;1.23;;;4.90;99.90;;;;;;5051210;28;20339;-60
2021/01/24 03:41:41;;;;;;;1.70;1.50;;;4.80;99.90;;;;;;5051258;28;20202;-59
2021/01/24 03:44:07;;;;;;;2.10;1.90;;;4.70;99.90;;;;;;5050827;28;20709;-59
2021/01/24 03:46:34;;;;;;;2.40;2.00;;;4.60;99.90;;;;;;5050936;28;20210;-60
2021/01/24 03:49:00;;;;;;;2.10;1.90;;;4.40;99.90;;;;;;5050841;28;20646;-59
2021/01/24 03:51:27;;;;;;;2.50;2.30;;;4.40;99.90;;;;;;5050865;28;20647;-59
2021/01/24 03:53:53;;;;;;;2.63;2.10;;;4.20;99.90;;;;;;5050647;28;20583;-60
2021/01/24 03:56:20;;;;;;;2.87;2.20;;;4.20;99.90;;;;;;5050999;28;20209;-60
2021/01/24 03:58:46;;;;;;;2.53;2.30;;;4.20;99.90;;;;;;5050860;28;20291;-59
2021/01/24 04:01:13;;;;;;;2.70;2.43;;;4.20;99.90;;;;;;5050758;28;20676;-59
2021/01/24 04:03:39;;;;;;;3.07;2.37;;;4.30;99.90;;;;;;5050633;28;20229;-60
2021/01/24 04:06:05;;;;;;;2.97;2.50;;;4.30;99.90;;;;;;5050753;28;20201;-60
2021/01/24 04:08:31;;;;;;;3.70;2.37;;;4.30;99.90;;;;;;5050367;28;20225;-60
2021/01/24 04:10:57;;;;;;;11.10;5.37;;;4.40;99.90;;;;;;5051094;28;20228;-59
2021/01/24 04:13:25;;;;;;;2.50;2.20;;;4.40;99.90;;;;;;5050672;28;20198;-60
2021/01/24 04:15:51;;;;;;;3.53;2.80;;;4.30;99.90;;;;;;5050660;28;20256;-60
2021/01/24 04:18:17;;;;;;;3.40;2.30;;;4.40;99.90;;;;;;5050349;28;20252;-60
2021/01/24 04:20:43;;;;;;;3.47;2.60;;;4.40;99.90;;;;;;5050831;28;20224;-60
2021/01/24 04:23:10;;;;;;;2.93;2.53;;;4.40;99.90;;;;;;5050654;28;20221;-60
2021/01/24 04:25:36;;;;;;;4.03;2.63;;;4.30;99.90;;;;;;5050573;28;20201;-60
2021/01/24 04:28:02;;;;;;;3.50;2.53;;;4.30;99.90;;;;;;5050363;28;20229;-60
2021/01/24 04:30:30;;;;;;;3.03;2.10;;;4.30;99.90;;;;;;5050698;28;20206;-61
2021/01/24 04:32:56;;;;;;;2.50;2.23;;;4.30;99.90;;;;;;5050556;28;20263;-60
2021/01/24 04:35:22;;;;;;;2.87;2.03;;;4.40;99.90;;;;;;5050646;28;20689;-60
2021/01/24 04:37:48;;;;;;;2.80;2.10;;;4.20;99.90;;;;;;5050624;28;20225;-60
2021/01/24 04:40:15;;;;;;;2.83;2.17;;;4.10;99.90;;;;;;5050491;28;20205;-60
2021/01/24 04:42:42;;;;;;;2.17;1.90;;;4.00;99.90;;;;;;5050525;28;20206;-60
2021/01/24 04:45:09;;;;;;;2.63;1.97;;;3.90;99.90;;;;;;5050636;28;20237;-60
2021/01/24 04:47:39;;;;;;;2.40;1.97;;;3.70;99.90;;;;;;5050778;28;20249;-60
2021/01/24 04:50:06;;;;;;;3.40;2.17;;;3.60;99.90;;;;;;5050507;28;20216;-60
2021/01/24 04:52:33;;;;;;;3.53;2.10;;;3.60;99.90;;;;;;5050538;28;20218;-60
2021/01/24 04:55:00;;;;;;;2.37;1.90;;;3.70;99.90;;;;;;5050423;28;20208;-60
2021/01/24 04:57:27;;;;;;;3.77;2.13;;;3.60;99.90;;;;;;5050254;28;20256;-60
2021/01/24 04:59:53;;;;;;;2.77;2.30;;;3.60;99.90;;;;;;5050168;28;20206;-60
2021/01/24 05:02:20;;;;;;;2.67;2.10;;;3.50;99.90;;;;;;5050194;28;20209;-60
2021/01/24 05:04:47;;;;;;;2.90;2.00;;;3.40;99.90;;;;;;5050214;28;20225;-60
2021/01/24 05:07:13;;;;;;;3.23;1.83;;;3.60;99.90;;;;;;5050344;28;20226;-60
2021/01/24 05:09:41;;;;;;;2.23;1.73;;;3.60;99.90;;;;;;5050338;28;20261;-60
2021/01/24 05:12:08;;;;;;;3.03;1.73;;;3.60;99.90;;;;;;5050182;28;20241;-60
2021/01/24 05:14:34;;;;;;;3.43;1.70;;;3.70;99.90;;;;;;5050492;28;20231;-60
2021/01/24 05:17:01;;;;;;;2.43;1.90;;;3.70;99.90;;;;;;5050188;28;20222;-60
2021/01/24 05:19:27;;;;;;;3.87;2.10;;;3.70;99.90;;;;;;5050678;28;20212;-60
2021/01/24 05:21:54;;;;;;;2.77;1.80;;;3.70;99.90;;;;;;5053773;28;20260;-60
2021/01/24 05:24:21;;;;;;;3.20;2.00;;;3.60;99.90;;;;;;5053537;28;20226;-60
2021/01/24 05:26:49;;;;;;;3.13;1.87;;;3.60;99.90;;;;;;5053514;28;20261;-60
2021/01/24 05:29:20;;;;;;;3.80;1.87;;;3.50;99.90;;;;;;5053325;28;20201;-60
2021/01/24 05:31:47;;;;;;;2.80;1.80;;;3.50;99.90;;;;;;5053598;28;20221;-60
2021/01/24 05:34:15;;;;;;;2.57;1.70;;;3.50;99.90;;;;;;5053593;28;20260;-60
2021/01/24 05:36:41;;;;;;;3.00;1.80;;;3.50;99.90;;;;;;5053857;28;20292;-60
2021/01/24 05:39:09;;;;;;;2.60;1.87;;;3.50;99.90;;;;;;5053411;28;20221;-60
2021/01/24 05:41:36;;;;;;;2.23;1.70;;;3.40;99.90;;;;;;5053344;28;20216;-60
2021/01/24 05:44:02;;;;;;;4.00;1.93;;;3.30;99.90;;;;;;5053045;28;20602;-60
2021/01/24 05:46:33;;;;;;;2.77;1.50;;;3.40;99.90;;;;;;5053483;28;20217;-60
2021/01/24 05:48:59;;;;;;;3.90;2.30;;;3.30;99.90;;;;;;5053211;28;20240;-60
2021/01/24 05:51:26;;;;;;;1.97;1.67;;;3.30;99.90;;;;;;5053268;28;20209;-60
2021/01/24 05:53:56;;;;;;;3.60;2.00;;;3.30;99.90;;;;;;5053066;28;20293;-60
2021/01/24 05:56:24;;;;;;;1.93;1.73;;;3.20;99.90;;;;;;5053215;28;20334;-60
2021/01/24 05:58:54;;;;;;;2.60;1.70;;;2.90;99.90;;;;;;5053094;28;20582;-60
2021/01/24 06:01:20;;;;;;;3.90;1.97;;;2.90;99.90;;;;;;5053331;28;20229;-60
2021/01/24 06:03:46;;;;;;;3.93;2.30;;;2.70;99.90;;;;;;5052741;28;20228;-60
2021/01/24 06:06:13;;;;;;;4.43;2.00;;;2.60;99.90;;;;;;5053028;28;20696;-60
2021/01/24 06:08:39;;;;;;;3.00;2.00;;;2.40;99.90;;;;;;5052824;28;20225;-60
2021/01/24 06:11:07;;;;;;;4.30;2.13;;;2.30;99.90;;;;;;5053224;28;20205;-60
2021/01/24 06:13:35;;;;;;;4.47;2.40;;;2.30;99.90;;;;;;5053051;28;20205;-60
2021/01/24 06:16:06;;;;;;;2.53;2.07;;;2.30;99.90;;;;;;5053264;28;20558;-60
2021/01/24 06:18:37;;;;;;;2.97;1.90;;;2.20;99.90;;;;;;5052757;28;20252;-60
2021/01/24 06:21:06;;;;;;;2.50;1.97;;;2.30;99.90;;;;;;5052762;28;20206;-60
2021/01/24 06:23:35;;;;;;;3.07;1.90;;;2.20;99.90;;;;;;5052378;28;20230;-60
2021/01/24 06:26:09;;;;;;;4.47;2.43;;;2.30;99.90;;;;;;5052901;28;20210;-60
2021/01/24 06:28:41;;;;;;;2.97;2.10;;;2.30;99.90;;;;;;5052179;28;20234;-60
2021/01/24 06:31:13;;;;;;;2.57;2.20;;;2.20;99.90;;;;;;5052560;28;20218;-60
2021/01/24 06:33:39;;;;;;;3.17;2.10;;;2.20;99.90;;;;;;5052044;28;20202;-60
2021/01/24 06:36:06;;;;;;;2.57;2.13;;;2.40;99.90;;;;;;5052591;28;20213;-60
2021/01/24 06:38:34;;;;;;;3.53;2.20;;;2.50;99.90;;;;;;5052253;28;20229;-60
2021/01/24 06:41:02;;;;;;;3.23;2.33;;;2.60;99.90;;;;;;5052336;28;20210;-61
2021/01/24 06:43:41;;;;;;;3.07;2.30;;;2.60;99.90;;;;;;5052104;28;20202;-61
2021/01/24 06:46:08;;;;;;;4.27;2.90;;;2.50;99.90;;;;;;5052125;28;20206;-60
2021/01/24 06:48:47;;;;;;;4.73;2.60;;;2.70;99.90;;;;;;5051821;28;20231;-60
2021/01/24 06:51:31;;;;;;;4.70;2.40;;;2.60;99.90;;;;;;5052122;28;20258;-60
2021/01/24 06:53:57;;;;;;;4.77;2.70;;;2.40;99.90;;;;;;5051950;28;20313;-60
2021/01/24 06:56:26;;;;;;;4.30;2.83;;;2.20;99.90;;;;;;5051859;28;20209;-60
2021/01/24 06:58:53;;;;;;;4.03;2.43;;;2.10;99.90;;;;;;5051754;28;20201;-60
2021/01/24 07:01:23;;;;;;;3.60;2.60;;;2.10;99.90;;;;;;5051933;28;20247;-61
2021/01/24 07:04:30;;;;;;;4.20;2.30;;;2.20;99.90;;;;;;5051597;28;20221;-60
2021/01/24 07:06:57;;;;;;;3.50;2.33;;;2.20;99.90;;;;;;5051601;28;20232;-60
2021/01/24 07:09:43;;;;;;;2.47;2.20;;;2.20;99.90;;;;;;5051751;28;20209;-60
2021/01/24 07:12:10;;;;;;;2.97;2.50;;;2.10;99.90;;;;;;5051923;28;20190;-60
2021/01/24 07:14:48;;;;;;;5.20;2.40;;;2.20;99.90;;;;;;5051661;28;20205;-60
2021/01/24 07:17:17;;;;;;;5.00;2.60;;;2.30;99.90;;;;;;5051401;28;20221;-60
2021/01/24 07:19:45;;;;;;;3.57;2.40;;;2.30;99.90;;;;;;5051166;28;20205;-64
2021/01/24 07:22:12;;;;;;;4.27;2.37;;;2.40;99.90;;;;;;5051293;28;20554;-60
2021/01/24 07:24:40;;;;;;;4.93;2.47;;;2.40;99.90;;;;;;5051341;28;20609;-60
2021/01/24 07:27:07;;;;;;;3.20;2.40;;;2.50;99.90;;;;;;5051560;28;20244;-62
2021/01/24 07:29:34;;;;;;;2.60;2.07;;;2.60;99.90;;;;;;5051324;28;20313;-60
2021/01/24 07:32:05;;;;;;;3.73;2.30;;;2.70;99.90;;;;;;5053452;28;20581;-60
2021/01/24 07:34:31;;;;;;;5.23;2.23;;;2.90;99.90;;;;;;5051376;28;20202;-61
2021/01/24 07:36:58;;;;;;;3.33;2.20;;;3.10;99.90;;;;;;5051423;28;20233;-61
2021/01/24 07:39:25;;;;;;;3.43;2.30;;;3.30;99.90;;;;;;5051375;28;20210;-62
2021/01/24 07:41:51;;;;;;;3.03;2.00;;;3.40;99.90;;;;;;5050840;28;20201;-61
2021/01/24 07:44:18;;;;;;;3.23;2.30;;;3.60;99.90;;;;;;5050899;28;20709;-61
2021/01/24 07:46:44;;;;;;;3.90;2.00;;;3.60;99.50;;;;;;5051072;28;20709;-61
2021/01/24 07:49:11;;;;;;;3.33;2.23;;;3.60;99.30;;;;;;5051330;28;20251;-61
2021/01/24 07:51:37;;;;;;;3.03;2.10;;;3.60;99.50;;;;;;5051455;28;20275;-60
2021/01/24 07:54:04;;;;;;;3.67;1.73;;;3.80;99.20;;;;;;5051009;28;20217;-62
2021/01/24 07:56:31;;;;;;;3.00;1.80;;;3.80;99.20;;;;;;5051046;28;20394;-61
2021/01/24 07:58:57;;;;;;;2.93;2.00;;;3.90;99.30;;;;;;5051041;28;20209;-61
2021/01/24 08:01:23;;;;;;;2.67;2.00;;;4.10;99.20;;;;;;5050894;28;20209;-62
2021/01/24 08:03:50;;;;;;;4.00;2.00;;;4.20;99.00;;;;;;5051081;28;20221;-62
2021/01/24 08:06:17;;;;;;;3.17;1.73;;;4.20;98.90;;;;;;5051096;28;20213;-59
2021/01/24 08:08:45;;;;;;;3.07;2.10;;;4.30;98.90;;;;;;5050591;28;20717;-60
2021/01/24 08:11:12;;;;;;;2.93;2.63;;;4.50;98.90;;;;;;5050976;28;20209;-60
2021/01/24 08:13:40;;;;;;;2.80;1.93;;;4.70;98.80;;;;;;5050690;28;20221;-59
2021/01/24 08:16:10;;;;;;;4.23;2.07;;;4.70;98.50;;;;;;5051113;28;20586;-59
2021/01/24 08:18:38;;;;;;;2.03;1.77;;;4.90;98.60;;;;;;5050715;28;20717;-59
2021/01/24 08:21:05;;;;;;;3.37;2.07;;;4.90;98.10;;;;;;5050928;28;20201;-60
2021/01/24 08:23:32;;;;;;;3.43;2.50;;;5.00;98.20;;;;;;5050515;28;20228;-60
2021/01/24 08:25:59;;;;;;;2.63;1.90;;;5.10;98.00;;;;;;5050878;28;20209;-60
2021/01/24 08:28:26;;;;;;;2.30;1.80;;;5.10;97.70;;;;;;5050462;28;20468;-60
2021/01/24 08:30:52;;;;;;;3.23;2.23;;;5.20;97.80;;;;;;5050784;28;20205;-60
2021/01/24 08:33:19;;;;;;;3.00;1.83;;;5.10;97.40;;;;;;5050707;28;20213;-60
2021/01/24 08:35:46;;;;;;;3.90;2.17;;;5.10;97.50;;;;;;5050543;28;20213;-60
2021/01/24 08:38:12;;;;;;;2.90;1.97;;;5.10;97.10;;;;;;5050464;28;20417;-60
2021/01/24 08:40:41;;;;;;;3.83;2.00;;;5.20;97.10;;;;;;5050667;28;20225;-60
2021/01/24 08:43:08;;;;;;;3.73;2.10;;;5.50;97.00;;;;;;5050526;28;20615;-60
2021/01/24 08:45:35;;;;;;;2.40;1.63;;;5.50;96.70;;;;;;5050227;28;20723;-60
2021/01/24 08:48:04;;;;;;;2.60;1.90;;;5.60;96.00;;;;;;5050431;28;20346;-61
2021/01/24 08:50:31;;;;;;;2.60;1.63;;;5.70;95.60;;;;;;5050503;28;20543;-61
2021/01/24 08:52:59;;;;;;;2.90;1.93;;;5.70;95.50;;;;;;5050424;28;20663;-61
2021/01/24 08:55:25;;;;;;;4.10;1.77;;;5.70;95.60;;;;;;5054081;28;20228;-64
2021/01/24 08:57:53;;;;;;;1.90;1.70;;;5.70;95.40;;;;;;5054431;28;20229;-64
2021/01/24 09:00:20;;;;;;;2.03;1.70;;;5.70;95.50;;;;;;5054693;28;20213;-63
2021/01/24 09:02:47;;;;;;;3.40;1.87;;;5.70;95.50;;;;;;5054315;28;20232;-63
2021/01/24 09:05:15;;;;;;;3.20;1.67;;;5.90;95.40;;;;;;5053761;28;20226;-64
2021/01/24 09:07:42;;;;;;;3.13;1.97;;;5.80;95.20;;;;;;5053805;28;20649;-65
2021/01/24 09:10:19;;;;;;;2.93;1.60;;;5.60;95.50;;;;;;5053764;28;20232;-63
2021/01/24 09:12:47;;;;;;;2.23;1.60;;;5.50;95.90;;;;;;5053834;28;20692;-65
2021/01/24 09:15:15;;;;;;;3.17;2.00;;;5.40;95.90;;;;;;5053817;28;20197;-63
2021/01/24 09:17:41;;;;;;;3.83;2.30;;;5.40;96.10;;;;;;5054087;28;20232;-63
2021/01/24 09:20:08;;;;;;;4.80;2.00;;;5.30;96.50;;;;;;5053776;28;20209;-63
2021/01/24 09:22:35;;;;;;;3.20;2.27;;;5.10;96.90;;;;;;5053707;28;20201;-63
2021/01/24 09:25:02;;;;;;;3.37;1.90;;;5.10;97.30;;;;;;5053724;28;20225;-63
2021/01/24 09:27:28;;;;;;;3.77;1.80;;;5.10;97.60;;;;;;5053979;28;20616;-63
2021/01/24 09:29:54;;;;;;;2.20;1.93;;;4.90;98.40;;;;;;5053613;28;20585;-63
2021/01/24 09:32:21;;;;;;;3.13;1.70;;;4.90;99.10;;;;;;5053807;28;20584;-63
2021/01/24 09:34:47;;;;;;;2.97;1.90;;;5.00;99.30;;;;;;5053461;28;20205;-63
2021/01/24 09:37:14;;;;;;;2.13;1.90;;;4.80;99.90;;;;;;5053316;28;20234;-64
2021/01/24 09:39:40;;;;;;;2.07;1.87;;;4.70;99.90;;;;;;5053470;28;20209;-64
2021/01/24 09:42:06;;;;;;;2.27;1.90;;;4.70;99.90;;;;;;5053417;28;20220;-63
2021/01/24 09:44:32;;;;;;;2.37;1.90;;;4.90;99.90;;;;;;5052983;28;20262;-64
2021/01/24 09:46:59;;;;;;;3.53;1.90;;;4.90;99.90;;;;;;5053193;28;20257;-63
2021/01/24 09:49:26;;;;;;;4.20;2.00;;;5.00;99.90;;;;;;5052989;28;20646;-64
2021/01/24 09:51:52;;;;;;;3.00;1.73;;;4.90;99.90;;;;;;5053038;28;20232;-64
2021/01/24 09:54:18;;;;;;;2.07;1.70;;;4.90;99.90;;;;;;5053216;28;20206;-64
2021/01/24 09:56:45;;;;;;;3.07;2.07;;;4.80;99.90;;;;;;5053061;28;20717;-64
2021/01/24 09:59:12;;;;;;;3.77;1.90;;;4.80;99.90;;;;;;5052909;28;20796;-64
2021/01/24 10:01:40;;;;;;;2.57;2.10;;;5.00;99.90;;;;;;5053022;28;20678;-64
2021/01/24 10:04:06;;;;;;;4.33;2.43;;;5.10;99.90;;;;;;5052697;28;20221;-65
2021/01/24 10:06:33;;;;;;;2.73;1.97;;;5.30;99.90;;;;;;5052538;28;20202;-64
2021/01/24 10:08:59;;;;;;;3.20;2.33;;;5.20;99.90;;;;;;5053368;28;20202;-65
2021/01/24 10:11:26;;;;;;;3.00;2.00;;;5.30;99.90;;;;;;5053073;28;20205;-65
2021/01/24 10:13:52;;;;;;;2.80;2.37;;;5.20;99.90;;;;;;5052935;28;20212;-65
2021/01/24 10:16:18;;;;;;;3.23;2.20;;;5.20;99.90;;;;;;5052731;28;20206;-65
2021/01/24 10:18:45;;;;;;;3.37;2.30;;;5.30;99.90;;;;;;5052355;28;20222;-65
2021/01/24 10:21:11;;;;;;;2.20;2.00;;;5.20;99.90;;;;;;5052707;28;20205;-65
2021/01/24 10:23:39;;;;;;;3.93;2.90;;;5.30;99.90;;;;;;5052490;28;20216;-65
2021/01/24 10:26:06;;;;;;;5.10;2.33;;;5.30;99.90;;;;;;5051099;28;20297;-65
2021/01/24 10:28:32;;;;;;;4.03;2.03;;;5.40;99.90;;;;;;5052032;28;20263;-61
2021/01/24 10:30:58;;;;;;;4.80;2.00;;;5.30;99.90;;;;;;5051814;28;20279;-62
2021/01/24 10:33:25;;;;;;;4.47;2.47;;;5.40;99.90;;;;;;5052225;28;20206;-62
2021/01/24 10:35:51;;;;;;;3.03;2.10;;;5.30;99.90;;;;;;5052388;28;20229;-61
2021/01/24 10:38:20;;;;;;;3.13;2.17;;;5.20;99.90;;;;;;5045731;28;20696;-62
2021/01/24 10:40:47;;;;;;;3.20;2.80;;;5.30;99.90;;;;;;5031696;28;20221;-64
2021/01/24 10:43:13;;;;;;;4.00;2.23;;;5.50;99.90;;;;;;5031833;28;20210;-63
2021/01/24 10:45:40;;;;;;;4.70;2.57;;;5.60;99.90;;;;;;5032078;28;20233;-62
2021/01/24 10:48:07;;;;;;;3.17;2.03;;;5.80;99.90;;;;;;5032018;28;20284;-62
2021/01/24 10:50:36;;;;;;;2.63;2.17;;;5.80;99.90;;;;;;5033146;28;20210;-62
2021/01/24 10:53:03;;;;;;;3.17;2.30;;;5.90;99.90;;;;;;5032903;28;20318;-62
2021/01/24 10:55:29;;;;;;;5.30;3.27;;;6.10;99.90;;;;;;5032591;28;20210;-64
2021/01/24 10:57:56;;;;;;;3.73;2.57;;;6.20;99.90;;;;;;5032519;28;20783;-65
2021/01/24 11:00:23;;;;;;;3.53;2.43;;;6.20;99.90;;;;;;5032593;28;20206;-62
2021/01/24 11:02:49;;;;;;;2.30;1.97;;;6.20;99.90;;;;;;5033868;28;20206;-61
2021/01/24 11:05:15;;;;;;;4.93;2.03;;;6.10;99.80;;;;;;5032934;28;20573;-61
2021/01/24 11:07:41;;;;;;;2.50;2.00;;;6.00;99.60;;;;;;5032444;28;20237;-62
2021/01/24 11:10:09;;;;;;;3.73;2.43;;;5.90;99.50;;;;;;5032490;28;20210;-63
2021/01/24 11:12:36;;;;;;;2.10;1.77;;;5.90;99.20;;;;;;5032590;28;20678;-62
2021/01/24 11:15:03;;;;;;;3.00;1.87;;;5.80;98.10;;;;;;5032405;28;20627;-62
2021/01/24 11:17:30;;;;;;;2.63;1.70;;;5.80;97.60;;;;;;5031877;28;20229;-63
2021/01/24 11:19:57;;;;;;;2.73;1.53;;;5.70;98.10;;;;;;5033072;28;20229;-62
2021/01/24 11:22:23;;;;;;;4.53;1.80;;;5.90;97.00;;;;;;5033070;28;20209;-62
2021/01/24 11:24:50;;;;;;;4.57;2.00;;;6.00;96.90;;;;;;5032742;28;20652;-64
2021/01/24 11:27:16;;;;;;;3.33;1.70;;;6.20;96.90;;;;;;5032806;28;20332;-61
2021/01/24 11:29:43;;;;;;;2.37;1.63;;;6.30;96.50;;;;;;5032110;28;20213;-61
2021/01/24 11:32:10;;;;;;;5.37;2.20;;;6.30;96.10;;;;;;5031775;28;20218;-62
2021/01/24 11:34:37;;;;;;;2.37;1.33;;;6.30;95.90;;;;;;5032147;28;20248;-63
2021/01/24 11:37:04;;;;;;;4.53;1.50;;;6.50;96.00;;;;;;5032266;28;20230;-63
2021/01/24 11:39:31;;;;;;;2.40;1.57;;;6.40;95.30;;;;;;5032929;28;20207;-64
2021/01/24 11:41:57;;;;;;;2.40;1.43;;;6.30;95.10;;;;;;5033089;28;20206;-63
2021/01/24 11:44:23;;;;;;;4.43;1.90;;;6.10;95.50;;;;;;5032648;28;20242;-64
2021/01/24 11:46:50;;;;;;;2.77;1.60;;;5.90;95.30;;;;;;5032800;28;20226;-60
2021/01/24 11:49:18;;;;;;;2.07;1.20;;;5.80;95.60;;;;;;5032425;28;20578;-63
2021/01/24 11:51:44;;;;;;;1.93;1.33;;;5.80;95.60;;;;;;5031151;28;20597;-62
2021/01/24 11:54:10;;;;;;;1.97;1.40;;;5.80;95.60;;;;;;5030968;28;20225;-59
2021/01/24 11:56:36;;;;;;;2.60;1.80;;;5.70;95.80;;;;;;5030792;28;20213;-62
2021/01/24 11:59:03;;;;;;;3.07;1.70;;;5.80;95.90;;;;;;5031425;28;20217;-60
2021/01/24 12:01:29;;;;;;;2.80;1.80;;;5.90;95.90;;;;;;5031165;28;20202;-63
2021/01/24 12:03:55;;;;;;;2.83;1.50;;;5.80;95.80;;;;;;5030808;28;20252;-61
2021/01/24 12:06:22;;;;;;;2.90;1.60;;;5.80;96.10;;;;;;5031000;28;20228;-61
2021/01/24 12:08:48;;;;;;;2.40;1.90;;;5.70;96.10;;;;;;5031379;28;20679;-61
2021/01/24 12:11:14;;;;;;;4.25;2.42;;;5.70;96.30;;;;;;5028020;28;20871;-62
2021/01/24 12:13:40;;;;;;;2.10;1.50;;;5.80;96.00;;;;;;5041207;28;20590;-61
2021/01/24 12:16:07;;;;;;;2.17;1.57;;;5.60;96.00;;;;;;5050630;28;20205;-59
2021/01/24 12:18:33;;;;;;;2.80;1.83;;;5.60;96.10;;;;;;5050384;28;20316;-60
2021/01/24 12:20:59;;;;;;;3.30;1.63;;;5.60;96.20;;;;;;5050691;28;20209;-62
2021/01/24 12:23:26;;;;;;;3.10;1.33;;;5.30;96.50;;;;;;5050265;28;20593;-61
2021/01/24 12:25:52;;;;;;;5.23;1.90;;;5.20;96.70;;;;;;5050424;28;20229;-60
2021/01/24 12:28:18;;;;;;;3.23;1.40;;;5.20;96.50;;;;;;5050683;28;20260;-59
2021/01/24 12:30:44;;;;;;;4.47;2.73;;;5.20;96.80;;;;;;5054677;28;20681;-59
2021/01/24 12:33:12;;;;;;;4.30;2.23;;;5.30;96.80;;;;;;5054814;28;20615;-60
2021/01/24 12:35:38;;;;;;;6.83;3.73;;;5.60;96.80;;;;;;5054651;28;20819;-58
2021/01/24 12:38:05;;;;;;;1.60;1.30;;;5.70;96.50;;;;;;5054305;28;20229;-60
2021/01/24 12:40:32;;;;;;;1.93;1.50;;;5.60;96.00;;;;;;5054256;28;20271;-60
2021/01/24 12:42:58;;;;;;;3.13;1.80;;;5.70;95.60;;;;;;5054668;28;20209;-61
2021/01/24 12:45:25;;;;;;;3.57;2.10;;;5.60;95.70;;;;;;5054227;28;20283;-60
2021/01/24 12:47:51;;;;;;;2.00;1.60;;;5.70;96.00;;;;;;5054167;28;20717;-61
2021/01/24 12:50:18;;;;;;;2.87;1.50;;;5.80;95.90;;;;;;5054799;28;20205;-58
2021/01/24 12:52:44;;;;;;;2.83;1.80;;;5.80;95.90;;;;;;5054266;28;20237;-59
2021/01/24 12:55:11;;;;;;;14.97;9.90;;;5.90;96.00;;;;;;5054206;28;20212;-62
2021/01/24 12:57:38;;;;;;;4.37;2.10;;;5.90;95.40;;;;;;5054382;28;20415;-62
2021/01/24 13:00:08;;;;;;;3.23;1.50;;;6.00;94.90;;;;;;5054174;28;20205;-60